createdAt,value
2018-05-29T00:00:27.395Z,13.23
2018-05-29T00:02:54.868Z,12.63
2018-05-29T00:05:22.894Z,12.87
2018-05-29T00:07:50.354Z,13.87
2018-05-29T00:10:17.798Z,13.60
2018-05-29T00:12:45.267Z,12.40
2018-05-29T00:15:12.711Z,12.73
2018-05-29T00:17:40.948Z,12.77
2018-05-29T00:20:08.417Z,13.40
2018-05-29T00:22:35.891Z,13.27
2018-05-29T00:25:03.348Z,13.33
2018-05-29T00:27:31.651Z,13.80
2018-05-29T00:29:59.122Z,14.93
2018-05-29T00:32:26.608Z,14.20
2018-05-29T00:34:54.074Z,15.10
2018-05-29T00:37:21.539Z,14.30
2018-05-29T00:39:49.016Z,14.10
2018-05-29T00:42:16.797Z,14.10
2018-05-29T00:44:44.336Z,13.43
2018-05-29T00:47:12.603Z,13.93
2018-05-29T00:49:40.174Z,13.63
2018-05-29T00:52:07.755Z,13.03
2018-05-29T00:54:35.249Z,13.93
2018-05-29T00:57:02.731Z,13.23
2018-05-29T00:59:30.411Z,12.87
2018-05-29T01:01:57.864Z,13.27
2018-05-29T01:04:25.322Z,13.33
2018-05-29T01:06:52.797Z,13.30
2018-05-29T01:09:20.286Z,13.10
2018-05-29T01:11:47.746Z,13.33
2018-05-29T01:14:15.310Z,15.30
2018-05-29T01:16:42.795Z,15.00
2018-05-29T01:19:10.254Z,14.10
2018-05-29T01:21:37.706Z,13.80
2018-05-29T01:24:05.960Z,13.50
2018-05-29T01:26:33.431Z,14.20
2018-05-29T01:29:00.903Z,15.90
2018-05-29T01:31:28.375Z,14.30
2018-05-29T01:33:55.896Z,15.60
2018-05-29T01:36:23.356Z,14.13
2018-05-29T01:38:50.857Z,14.53
2018-05-29T01:41:18.770Z,12.87
2018-05-29T01:43:46.238Z,12.97
2018-05-29T01:46:13.713Z,14.47
2018-05-29T01:48:41.168Z,13.43
2018-05-29T01:51:09.408Z,14.03
2018-05-29T01:53:36.865Z,13.33
2018-05-29T01:56:04.353Z,13.60
2018-05-29T01:58:31.815Z,12.43
2018-05-29T02:00:59.314Z,14.07
2018-05-29T02:03:26.802Z,14.13
2018-05-29T02:05:58.438Z,12.63
2018-05-29T02:08:29.338Z,13.63
2018-05-29T02:10:56.844Z,12.70
2018-05-29T02:13:24.346Z,13.57
2018-05-29T02:15:51.859Z,12.80
2018-05-29T02:18:19.326Z,13.33
2018-05-29T02:20:46.774Z,13.97
2018-05-29T02:23:14.245Z,12.67
2018-05-29T02:25:41.690Z,13.90
2018-05-29T02:28:09.933Z,13.33
2018-05-29T02:30:37.391Z,13.03
2018-05-29T02:33:04.899Z,14.70
2018-05-29T02:35:32.357Z,13.10
2018-05-29T02:38:00.796Z,15.27
2018-05-29T02:40:29.021Z,16.10
2018-05-29T02:42:56.502Z,14.77
2018-05-29T02:45:23.951Z,14.63
2018-05-29T02:47:52.198Z,15.83
2018-05-29T02:50:19.664Z,15.10
2018-05-29T02:52:47.107Z,15.13
2018-05-29T02:55:14.588Z,15.50
2018-05-29T02:57:42.059Z,13.97
2018-05-29T03:00:10.284Z,15.53
2018-05-29T03:02:37.747Z,14.60
2018-05-29T03:05:05.204Z,14.90
2018-05-29T03:07:32.730Z,16.10
2018-05-29T03:10:00.319Z,15.13
2018-05-29T03:12:27.774Z,15.23
2018-05-29T03:14:55.282Z,14.00
2018-05-29T03:17:22.871Z,15.03
2018-05-29T03:19:51.120Z,14.47
2018-05-29T03:22:18.571Z,16.07
2018-05-29T03:24:46.051Z,15.17
2018-05-29T03:27:13.524Z,16.53
2018-05-29T03:29:40.969Z,17.37
2018-05-29T03:32:09.214Z,15.70
2018-05-29T03:34:36.698Z,16.90
2018-05-29T03:37:04.195Z,16.73
2018-05-29T03:39:31.645Z,15.77
2018-05-29T03:41:59.098Z,15.60
2018-05-29T03:44:26.552Z,15.80
2018-05-29T03:46:54.027Z,14.73
2018-05-29T03:49:21.506Z,15.17
2018-05-29T03:51:48.982Z,15.03
2018-05-29T03:54:16.427Z,15.27
2018-05-29T03:56:44.706Z,17.03
2018-05-29T03:59:12.147Z,16.10
2018-05-29T04:01:39.622Z,15.90
2018-05-29T04:04:07.072Z,15.40
2018-05-29T04:06:34.544Z,14.63
2018-05-29T04:09:02.141Z,15.47
2018-05-29T04:11:29.614Z,14.43
2018-05-29T04:13:57.098Z,15.00
2018-05-29T04:16:25.358Z,15.07
2018-05-29T04:18:52.842Z,15.10
2018-05-29T04:21:20.303Z,15.60
2018-05-29T04:23:47.766Z,15.47
2018-05-29T04:26:15.985Z,16.67
2018-05-29T04:28:43.460Z,15.03
2018-05-29T04:31:10.929Z,15.20
2018-05-29T04:33:39.000Z,14.87
2018-05-29T04:36:07.225Z,15.10
2018-05-29T04:38:34.707Z,15.07
2018-05-29T04:41:02.169Z,15.03
2018-05-29T04:43:29.655Z,15.33
2018-05-29T04:45:57.113Z,15.97
2018-05-29T04:48:24.588Z,14.90
2018-05-29T04:50:52.046Z,14.67
2018-05-29T04:53:20.270Z,16.37
2018-05-29T04:55:51.502Z,16.90
2018-05-29T04:58:19.737Z,14.90
2018-05-29T05:00:47.211Z,15.10
2018-05-29T05:03:14.754Z,15.43
2018-05-29T05:05:42.279Z,15.30
2018-05-29T05:08:09.861Z,13.97
2018-05-29T05:10:37.342Z,13.20
2018-05-29T05:13:04.798Z,13.67
2018-05-29T05:15:32.269Z,14.13
2018-05-29T05:18:03.529Z,14.13
2018-05-29T05:20:31.017Z,14.53
2018-05-29T05:22:58.522Z,13.90
2018-05-29T05:25:25.959Z,13.70
2018-05-29T05:27:53.419Z,13.60
2018-05-29T05:30:21.208Z,14.83
2018-05-29T05:32:48.698Z,13.50
2018-05-29T05:35:16.161Z,14.73
2018-05-29T05:37:43.650Z,14.70
2018-05-29T05:40:11.126Z,15.13
2018-05-29T05:42:38.583Z,13.73
2018-05-29T05:45:06.117Z,13.77
2018-05-29T05:47:34.346Z,13.53
2018-05-29T05:50:05.538Z,13.30
2018-05-29T05:52:33.008Z,14.40
2018-05-29T05:55:04.191Z,14.93
2018-05-29T05:57:31.661Z,15.33
2018-05-29T05:59:59.129Z,15.50
2018-05-29T06:02:26.618Z,14.53
2018-05-29T06:04:54.063Z,13.57
2018-05-29T06:07:21.627Z,15.77
2018-05-29T06:09:49.081Z,14.50
2018-05-29T06:12:16.563Z,14.03
2018-05-29T06:14:44.342Z,14.60
2018-05-29T06:17:11.819Z,13.63
2018-05-29T06:19:39.278Z,14.43
2018-05-29T06:22:06.755Z,15.50
2018-05-29T06:24:34.232Z,14.23
2018-05-29T06:27:02.459Z,13.63
2018-05-29T06:29:29.915Z,14.50
2018-05-29T06:31:57.394Z,14.23
2018-05-29T06:34:24.874Z,14.50
2018-05-29T06:36:52.358Z,15.37
2018-05-29T06:39:19.838Z,14.80
2018-05-29T06:41:47.291Z,14.70
2018-05-29T06:44:14.769Z,15.70
2018-05-29T06:46:42.569Z,15.43
2018-05-29T06:49:10.038Z,15.30
2018-05-29T06:51:37.489Z,14.47
2018-05-29T06:54:05.023Z,15.43
2018-05-29T06:56:32.497Z,16.17
2018-05-29T06:59:03.268Z,16.43
2018-05-29T07:01:31.487Z,17.37
2018-05-29T07:03:59.098Z,19.13
2018-05-29T07:06:26.841Z,17.17
2018-05-29T07:08:54.437Z,16.30
2018-05-29T07:11:21.899Z,17.07
2018-05-29T07:13:49.379Z,16.63
2018-05-29T07:18:49.727Z,15.27
2018-05-29T07:21:18.111Z,17.63
2018-05-29T07:23:45.587Z,16.33
2018-05-29T07:26:14.091Z,17.33
2018-05-29T07:28:42.316Z,17.13
2018-05-29T07:31:09.803Z,16.53
2018-05-29T07:33:37.279Z,17.93
2018-05-29T07:36:04.806Z,17.60
2018-05-29T07:38:33.071Z,17.23
2018-05-29T07:41:00.551Z,16.83
2018-05-29T07:43:28.081Z,17.13
2018-05-29T07:45:56.531Z,17.03
2018-05-29T07:48:24.009Z,17.73
2018-05-29T07:50:51.532Z,17.30
2018-05-29T07:53:19.099Z,18.03
2018-05-29T07:55:46.957Z,19.67
2018-05-29T07:58:14.591Z,15.93
2018-05-29T08:00:42.117Z,19.80
2018-05-29T08:03:10.714Z,23.10
2018-05-29T08:05:38.166Z,17.77
2018-05-29T08:08:05.621Z,19.47
2018-05-29T08:10:33.088Z,16.53
2018-05-29T08:13:00.603Z,18.70
2018-05-29T08:15:28.074Z,17.33
2018-05-29T08:17:55.551Z,17.50
2018-05-29T08:20:23.043Z,16.83
2018-05-29T08:22:51.299Z,18.20
2018-05-29T08:25:18.917Z,18.83
2018-05-29T08:27:47.203Z,18.20
2018-05-29T08:30:15.456Z,18.20
2018-05-29T08:32:43.009Z,18.37
2018-05-29T08:35:10.532Z,17.83
2018-05-29T08:37:38.034Z,19.03
2018-05-29T08:40:06.407Z,17.63
2018-05-29T08:42:34.127Z,23.40
2018-05-29T08:45:01.522Z,18.67
2018-05-29T08:47:28.996Z,17.90
2018-05-29T08:49:56.462Z,18.67
2018-05-29T08:52:23.943Z,16.63
2018-05-29T08:54:51.434Z,18.23
2018-05-29T08:57:21.567Z,17.60
2018-05-29T08:59:49.099Z,17.20
2018-05-29T09:02:16.575Z,16.77
2018-05-29T09:07:16.990Z,17.87
2018-05-29T09:09:44.463Z,17.97
2018-05-29T09:12:11.959Z,17.53
2018-05-29T09:14:39.454Z,17.30
2018-05-29T09:17:06.944Z,16.90
2018-05-29T09:19:35.196Z,18.43
2018-05-29T09:22:02.686Z,16.13
2018-05-29T09:24:30.162Z,16.33
2018-05-29T09:26:57.795Z,15.47
2018-05-29T09:29:31.184Z,17.70
2018-05-29T09:31:59.509Z,16.77
2018-05-29T09:34:27.066Z,15.50
2018-05-29T09:36:54.569Z,15.63
2018-05-29T09:39:22.035Z,16.60
2018-05-29T09:41:49.512Z,15.03
2018-05-29T09:44:17.036Z,17.10
2018-05-29T09:46:44.550Z,16.70
2018-05-29T09:49:12.992Z,15.83
2018-05-29T09:51:40.456Z,17.33
2018-05-29T09:54:08.148Z,16.73
2018-05-29T09:56:35.671Z,16.83
2018-05-29T09:59:03.170Z,15.10
2018-05-29T10:01:30.670Z,17.70
2018-05-29T10:04:00.673Z,15.73
2018-05-29T10:06:28.466Z,16.07
2018-05-29T10:09:20.110Z,16.53
2018-05-29T10:11:47.705Z,15.47
2018-05-29T10:14:15.386Z,17.20
2018-05-29T10:16:42.857Z,15.57
2018-05-29T10:19:10.308Z,14.10
2018-05-29T10:21:37.798Z,14.87
2018-05-29T10:24:05.261Z,15.17
2018-05-29T10:26:33.489Z,13.90
2018-05-29T10:29:00.935Z,15.23
2018-05-29T10:31:28.411Z,17.23
2018-05-29T10:33:55.886Z,14.63
2018-05-29T10:36:23.347Z,13.53
2018-05-29T10:38:51.559Z,14.10
2018-05-29T10:41:19.067Z,13.57
2018-05-29T10:43:46.532Z,15.47
2018-05-29T10:46:14.737Z,13.50
2018-05-29T10:48:42.216Z,13.80
2018-05-29T10:51:09.669Z,14.97
2018-05-29T10:53:37.142Z,15.43
2018-05-29T10:56:04.587Z,15.77
2018-05-29T10:58:32.042Z,12.87
2018-05-29T11:00:59.509Z,13.37
2018-05-29T11:03:26.979Z,14.77
2018-05-29T11:05:55.231Z,15.97
2018-05-29T11:08:22.695Z,16.83
2018-05-29T11:10:50.138Z,16.70
2018-05-29T11:13:17.607Z,16.20
2018-05-29T11:15:45.816Z,15.60
2018-05-29T11:18:13.290Z,17.03
2018-05-29T11:20:40.748Z,19.33
2018-05-29T11:23:08.231Z,18.30
2018-05-29T11:25:35.688Z,16.70
2018-05-29T11:28:03.155Z,17.83
2018-05-29T11:30:31.386Z,16.70
2018-05-29T11:32:58.866Z,16.80
2018-05-29T11:35:26.315Z,16.80
2018-05-29T11:37:53.757Z,16.57
2018-05-29T11:40:21.230Z,16.97
2018-05-29T11:42:48.695Z,17.20
2018-05-29T11:45:16.965Z,17.77
2018-05-29T11:47:44.407Z,17.37
2018-05-29T11:50:11.855Z,17.63
2018-05-29T11:52:39.298Z,18.00
2018-05-29T11:55:06.766Z,16.93
2018-05-29T11:57:34.222Z,18.47
2018-05-29T12:00:01.716Z,16.23
2018-05-29T12:02:29.176Z,16.20
2018-05-29T12:04:56.621Z,16.30
2018-05-29T12:07:24.084Z,19.53
2018-05-29T12:09:51.540Z,15.53
2018-05-29T12:12:25.466Z,16.17
2018-05-29T12:14:52.947Z,16.73
2018-05-29T12:17:21.123Z,15.73
2018-05-29T12:19:48.568Z,17.77
2018-05-29T12:22:16.106Z,17.77
2018-05-29T12:24:43.503Z,16.30
2018-05-29T12:27:11.731Z,16.03
2018-05-29T12:29:39.211Z,17.97
2018-05-29T12:32:06.689Z,16.47
2018-05-29T12:34:34.906Z,18.10
2018-05-29T12:37:02.368Z,18.23
2018-05-29T12:39:29.836Z,17.47
2018-05-29T12:41:57.300Z,16.07
2018-05-29T12:44:25.818Z,17.30
2018-05-29T12:46:53.468Z,17.97
2018-05-29T12:49:21.860Z,18.37
2018-05-29T12:51:49.403Z,18.23
2018-05-29T12:54:16.869Z,17.93
2018-05-29T12:56:44.315Z,18.53
2018-05-29T12:59:11.814Z,17.50
2018-05-29T13:01:39.228Z,18.17
2018-05-29T13:04:06.703Z,16.83
2018-05-29T13:06:34.164Z,20.90
2018-05-29T13:09:01.646Z,23.40
2018-05-29T13:11:29.127Z,23.27
2018-05-29T13:13:57.382Z,21.03
2018-05-29T13:16:24.864Z,20.27
2018-05-29T13:18:52.344Z,22.33
2018-05-29T13:21:19.814Z,21.00
2018-05-29T13:23:47.288Z,19.27
2018-05-29T13:26:14.746Z,21.33
2018-05-29T13:28:42.189Z,22.30
2018-05-29T13:31:09.667Z,22.10
2018-05-29T13:33:37.889Z,21.23
2018-05-29T13:36:05.353Z,22.50
2018-05-29T13:38:32.811Z,20.47
2018-05-29T13:41:00.290Z,21.00
2018-05-29T13:43:27.735Z,19.63
2018-05-29T13:45:55.208Z,19.93
2018-05-29T13:48:23.423Z,18.97
2018-05-29T13:50:50.904Z,18.07
2018-05-29T13:53:18.346Z,18.93
2018-05-29T13:55:45.813Z,18.43
2018-05-29T13:58:13.263Z,19.23
2018-05-29T14:00:40.742Z,18.17
2018-05-29T14:03:08.260Z,15.83
2018-05-29T14:05:35.750Z,17.70
2018-05-29T14:08:03.186Z,15.83
2018-05-29T14:10:30.622Z,15.80
2018-05-29T14:12:58.108Z,14.23
2018-05-29T14:15:25.565Z,15.73
2018-05-29T14:17:53.227Z,15.80
2018-05-29T14:20:20.671Z,14.13
2018-05-29T14:22:48.175Z,14.70
2018-05-29T14:25:15.616Z,14.10
2018-05-29T14:27:43.850Z,14.30
2018-05-29T14:30:11.302Z,15.13
2018-05-29T14:32:38.809Z,16.40
2018-05-29T14:35:06.292Z,16.27
2018-05-29T14:37:33.763Z,14.93
2018-05-29T14:40:01.221Z,15.60
2018-05-29T14:42:28.713Z,15.70
2018-05-29T14:44:56.966Z,16.90
2018-05-29T14:47:25.219Z,16.73
2018-05-29T14:49:52.696Z,16.23
2018-05-29T14:52:20.935Z,16.50
2018-05-29T14:54:48.398Z,14.93
2018-05-29T14:57:15.850Z,14.53
2018-05-29T14:59:43.340Z,16.20
2018-05-29T15:02:11.574Z,15.70
2018-05-29T15:04:39.143Z,13.60
2018-05-29T15:07:06.607Z,16.70
2018-05-29T15:09:34.070Z,13.13
2018-05-29T15:12:02.303Z,13.33
2018-05-29T15:14:29.766Z,13.53
2018-05-29T15:16:57.281Z,13.40
2018-05-29T15:19:24.741Z,14.33
2018-05-29T15:21:52.223Z,13.50
2018-05-29T15:24:19.671Z,13.00
2018-05-29T15:26:47.130Z,13.03
2018-05-29T15:29:14.579Z,13.13
2018-05-29T15:31:42.078Z,13.17
2018-05-29T15:34:10.287Z,13.60
2018-05-29T15:36:37.778Z,13.13
2018-05-29T15:39:05.252Z,11.50
2018-05-29T15:41:33.503Z,12.47
2018-05-29T15:44:00.959Z,12.23
2018-05-29T15:46:28.440Z,11.50
2018-05-29T15:48:56.676Z,14.10
2018-05-29T15:51:24.139Z,13.33
2018-05-29T15:53:51.616Z,13.10
2018-05-29T15:56:19.090Z,13.10
2018-05-29T15:58:46.554Z,12.70
2018-05-29T16:01:14.020Z,13.73
2018-05-29T16:03:41.481Z,13.40
2018-05-29T16:06:08.946Z,13.40
2018-05-29T16:08:36.414Z,15.67
2018-05-29T16:11:03.870Z,13.40
2018-05-29T16:13:31.471Z,13.70
2018-05-29T16:15:59.704Z,14.23
2018-05-29T16:18:27.189Z,13.00
2018-05-29T16:20:54.634Z,14.93
2018-05-29T16:23:22.879Z,13.43
2018-05-29T16:25:50.349Z,12.53
2018-05-29T16:28:18.566Z,13.33
2018-05-29T16:30:46.062Z,13.70
2018-05-29T16:33:13.595Z,13.53
2018-05-29T16:35:41.068Z,14.77
2018-05-29T16:38:10.143Z,13.83
2018-05-29T16:40:37.656Z,14.03
2018-05-29T16:43:05.081Z,16.37
2018-05-29T16:45:32.544Z,14.47
2018-05-29T16:47:59.987Z,12.60
2018-05-29T16:50:27.472Z,13.83
2018-05-29T16:52:55.699Z,13.30
2018-05-29T16:55:23.874Z,14.57
2018-05-29T16:57:51.334Z,15.67
2018-05-29T17:00:18.804Z,13.77
2018-05-29T17:02:46.271Z,13.97
2018-05-29T17:05:14.478Z,13.43
2018-05-29T17:07:41.949Z,13.17
2018-05-29T17:10:09.395Z,14.10
2018-05-29T17:12:36.867Z,14.80
2018-05-29T17:15:04.353Z,12.90
2018-05-29T17:17:31.803Z,13.43
2018-05-29T17:20:00.042Z,16.00
2018-05-29T17:22:27.524Z,13.67
2018-05-29T17:24:54.982Z,13.70
2018-05-29T17:27:23.303Z,14.60
2018-05-29T17:29:50.743Z,15.57
2018-05-29T17:32:18.198Z,14.70
2018-05-29T17:34:45.684Z,14.47
2018-05-29T17:37:13.125Z,14.43
2018-05-29T17:39:40.604Z,14.60
2018-05-29T17:42:08.487Z,13.33
2018-05-29T17:44:36.727Z,13.73
2018-05-29T17:47:04.180Z,13.50
2018-05-29T17:49:31.854Z,13.93
2018-05-29T17:52:00.229Z,14.20
2018-05-29T17:54:27.935Z,14.43
2018-05-29T17:56:55.452Z,12.30
2018-05-29T17:59:22.898Z,14.17
2018-05-29T18:01:50.552Z,12.77
2018-05-29T18:04:18.208Z,13.07
2018-05-29T18:06:45.899Z,13.50
2018-05-29T18:09:13.375Z,13.27
2018-05-29T18:11:41.108Z,12.57
2018-05-29T18:14:09.518Z,12.90
2018-05-29T18:16:36.993Z,12.53
2018-05-29T18:19:04.609Z,12.40
2018-05-29T18:21:32.098Z,12.30
2018-05-29T18:23:59.554Z,13.30
2018-05-29T18:26:27.191Z,12.87
2018-05-29T18:28:54.663Z,11.97
2018-05-29T18:31:22.223Z,11.03
2018-05-29T18:33:49.796Z,13.13
2018-05-29T18:36:17.328Z,13.23
2018-05-29T18:38:44.848Z,15.13
2018-05-29T18:41:13.151Z,13.10
2018-05-29T18:43:40.638Z,12.93
2018-05-29T18:46:08.139Z,13.80
2018-05-29T18:48:36.382Z,14.00
2018-05-29T18:51:03.835Z,12.50
2018-05-29T18:53:31.315Z,13.97
2018-05-29T18:55:58.779Z,12.40
2018-05-29T18:58:26.305Z,12.43
2018-05-29T19:00:53.756Z,16.30
2018-05-29T19:03:21.217Z,13.17
2018-05-29T19:05:48.700Z,12.80
2018-05-29T19:08:16.198Z,12.07
2018-05-29T19:10:43.671Z,12.20
2018-05-29T19:13:11.118Z,12.03
2018-05-29T19:15:38.597Z,11.20
2018-05-29T19:18:06.040Z,12.20
2018-05-29T19:20:33.525Z,10.20
2018-05-29T19:23:01.774Z,11.80
2018-05-29T19:25:29.227Z,10.67
2018-05-29T19:27:56.685Z,11.70
2018-05-29T19:30:24.924Z,9.90
2018-05-29T19:32:52.377Z,10.20
2018-05-29T19:35:19.856Z,9.70
2018-05-29T19:37:48.017Z,10.37
2018-05-29T19:40:15.484Z,10.23
2018-05-29T19:42:42.978Z,11.20
2018-05-29T19:45:10.477Z,10.97
2018-05-29T19:47:37.919Z,13.17
2018-05-29T19:50:05.475Z,10.70
2018-05-29T19:52:32.967Z,11.27
2018-05-29T19:55:00.429Z,10.93
2018-05-29T19:57:27.894Z,11.97
2018-05-29T19:59:55.351Z,11.23
2018-05-29T20:02:22.855Z,12.33
2018-05-29T20:04:50.299Z,11.70
2018-05-29T20:16:57.784Z,10.73
2018-05-29T20:19:26.012Z,11.17
2018-05-29T20:21:53.468Z,9.77
2018-05-29T20:24:21.583Z,11.53
2018-05-29T20:26:49.857Z,13.23
2018-05-29T20:29:18.137Z,10.57
2018-05-29T20:31:46.348Z,16.30
2018-05-29T20:34:13.830Z,10.47
2018-05-29T20:36:41.303Z,10.70
2018-05-29T20:39:08.737Z,10.03
2018-05-29T20:41:36.248Z,10.23
2018-05-29T20:44:03.714Z,12.30
2018-05-29T20:46:31.163Z,10.40
2018-05-29T20:48:58.618Z,10.03
2018-05-29T20:51:26.125Z,11.67
2018-05-29T20:53:53.590Z,9.00
2018-05-29T20:56:21.853Z,10.50
2018-05-29T20:58:49.300Z,10.43
2018-05-29T21:01:16.793Z,10.13
2018-05-29T21:03:44.234Z,9.93
2018-05-29T21:06:12.505Z,10.57
2018-05-29T21:08:40.729Z,11.10
2018-05-29T21:11:08.184Z,9.07
2018-05-29T21:13:35.675Z,9.50
2018-05-29T21:16:03.111Z,13.50
2018-05-29T21:18:30.609Z,9.97
2018-05-29T21:20:58.999Z,10.73
2018-05-29T21:23:26.622Z,10.87
2018-05-29T21:25:54.353Z,10.40
2018-05-29T21:28:21.925Z,14.27
2018-05-29T21:30:49.766Z,10.03
2018-05-29T21:33:18.530Z,9.93
2018-05-29T21:35:46.133Z,11.33
2018-05-29T21:38:15.216Z,10.50
2018-05-29T21:40:46.897Z,11.13
2018-05-29T21:43:20.365Z,12.70
2018-05-29T21:45:50.116Z,10.80
2018-05-29T21:48:18.459Z,8.90
2018-05-29T21:50:46.687Z,9.53
2018-05-29T21:53:14.197Z,9.50
2018-05-29T21:55:41.647Z,9.10
2018-05-29T21:58:09.883Z,8.83
2018-05-29T22:00:37.367Z,12.60
2018-05-29T22:03:04.817Z,9.87
2018-05-29T22:05:33.063Z,8.70
2018-05-29T22:08:00.512Z,12.83
2018-05-29T22:10:28.004Z,8.67
2018-05-29T22:12:56.230Z,10.00
2018-05-29T22:15:23.741Z,9.00
2018-05-29T22:17:51.186Z,9.50
2018-05-29T22:20:19.428Z,9.20
2018-05-29T22:22:46.881Z,9.83
2018-05-29T22:25:14.342Z,12.37
2018-05-29T22:27:41.818Z,10.77
2018-05-29T22:30:09.347Z,8.60
2018-05-29T22:32:36.810Z,9.30
2018-05-29T22:35:04.304Z,9.53
2018-05-29T22:37:31.768Z,11.57
2018-05-29T22:39:59.379Z,9.60
2018-05-29T22:42:26.837Z,9.53
2018-05-29T22:44:55.082Z,11.17
2018-05-29T22:47:22.567Z,9.10
2018-05-29T22:49:50.028Z,10.40
2018-05-29T22:52:18.291Z,9.33
2018-05-29T22:54:46.541Z,12.40
2018-05-29T22:57:14.052Z,9.93
2018-05-29T22:59:41.494Z,9.67
2018-05-29T23:02:09.795Z,9.50
2018-05-29T23:04:37.283Z,10.23
2018-05-29T23:07:04.736Z,12.73
2018-05-29T23:09:32.202Z,11.27
2018-05-29T23:11:59.668Z,9.63
2018-05-29T23:14:27.911Z,12.10
2018-05-29T23:16:55.349Z,8.60
2018-05-29T23:19:22.819Z,10.43
2018-05-29T23:21:50.273Z,10.37
2018-05-29T23:24:17.734Z,11.27
2018-05-29T23:26:45.218Z,9.70
2018-05-29T23:29:13.877Z,10.77
2018-05-29T23:31:41.312Z,11.10
2018-05-29T23:34:08.786Z,10.30
2018-05-29T23:36:36.253Z,9.70
2018-05-29T23:39:05.325Z,10.33
2018-05-29T23:41:34.626Z,13.70
2018-05-29T23:44:02.092Z,9.67
2018-05-29T23:46:30.320Z,11.47
2018-05-29T23:48:57.767Z,9.83
2018-05-29T23:51:25.215Z,10.73
2018-05-29T23:53:52.673Z,10.23
2018-05-29T23:56:20.134Z,10.37
2018-05-29T23:58:47.579Z,11.57
